sensor_id;sensor_type;location;lat;lon;timestamp;P1;durP1;ratioP1;P2;durP2;ratioP2
54899;SDS011;40801;41.924;25.562;2023-11-22T00:00:12;16.08;;;13.63;;
54899;SDS011;40801;41.924;25.562;2023-11-22T00:02:38;16.20;;;13.35;;
54899;SDS011;40801;41.924;25.562;2023-11-22T00:05:04;15.07;;;13.18;;
54899;SDS011;40801;41.924;25.562;2023-11-22T00:07:34;13.93;;;12.50;;
54899;SDS011;40801;41.924;25.562;2023-11-22T00:09:59;13.57;;;12.27;;
54899;SDS011;40801;41.924;25.562;2023-11-22T00:12:26;14.00;;;12.55;;
54899;SDS011;40801;41.924;25.562;2023-11-22T00:14:52;13.38;;;12.07;;
54899;SDS011;40801;41.924;25.562;2023-11-22T00:17:18;13.70;;;12.32;;
54899;SDS011;40801;41.924;25.562;2023-11-22T00:19:44;13.15;;;11.95;;
54899;SDS011;40801;41.924;25.562;2023-11-22T00:22:10;12.77;;;11.45;;
54899;SDS011;40801;41.924;25.562;2023-11-22T00:24:40;12.40;;;11.32;;
54899;SDS011;40801;41.924;25.562;2023-11-22T00:27:06;13.45;;;11.85;;
54899;SDS011;40801;41.924;25.562;2023-11-22T00:29:32;12.43;;;11.13;;
54899;SDS011;40801;41.924;25.562;2023-11-22T00:31:58;13.40;;;12.10;;
54899;SDS011;40801;41.924;25.562;2023-11-22T00:34:24;13.88;;;12.48;;
54899;SDS011;40801;41.924;25.562;2023-11-22T00:36:50;12.70;;;11.38;;
54899;SDS011;40801;41.924;25.562;2023-11-22T00:39:16;13.27;;;11.95;;
54899;SDS011;40801;41.924;25.562;2023-11-22T00:41:42;13.77;;;12.38;;
54899;SDS011;40801;41.924;25.562;2023-11-22T00:44:07;18.73;;;14.88;;
54899;SDS011;40801;41.924;25.562;2023-11-22T00:46:33;19.60;;;15.00;;
54899;SDS011;40801;41.924;25.562;2023-11-22T00:48:58;17.90;;;14.90;;
54899;SDS011;40801;41.924;25.562;2023-11-22T00:51:24;15.15;;;13.55;;
54899;SDS011;40801;41.924;25.562;2023-11-22T00:53:49;15.10;;;13.50;;
54899;SDS011;40801;41.924;25.562;2023-11-22T00:56:16;15.98;;;13.80;;
54899;SDS011;40801;41.924;25.562;2023-11-22T00:58:41;15.70;;;12.73;;
54899;SDS011;40801;41.924;25.562;2023-11-22T01:01:07;13.93;;;12.45;;
54899;SDS011;40801;41.924;25.562;2023-11-22T01:03:32;14.60;;;13.13;;
54899;SDS011;40801;41.924;25.562;2023-11-22T01:05:58;13.50;;;12.20;;
54899;SDS011;40801;41.924;25.562;2023-11-22T01:08:24;15.23;;;13.63;;
54899;SDS011;40801;41.924;25.562;2023-11-22T01:10:49;20.88;;;13.52;;
54899;SDS011;40801;41.924;25.562;2023-11-22T01:13:14;14.27;;;12.77;;
54899;SDS011;40801;41.924;25.562;2023-11-22T01:15:40;13.77;;;12.25;;
54899;SDS011;40801;41.924;25.562;2023-11-22T01:18:06;13.85;;;12.48;;
54899;SDS011;40801;41.924;25.562;2023-11-22T01:20:32;16.80;;;14.18;;
54899;SDS011;40801;41.924;25.562;2023-11-22T01:22:57;15.70;;;14.10;;
54899;SDS011;40801;41.924;25.562;2023-11-22T01:25:23;15.52;;;14.02;;
54899;SDS011;40801;41.924;25.562;2023-11-22T01:27:48;13.57;;;12.15;;
54899;SDS011;40801;41.924;25.562;2023-11-22T01:30:13;13.80;;;12.40;;
54899;SDS011;40801;41.924;25.562;2023-11-22T01:32:40;14.43;;;12.60;;
54899;SDS011;40801;41.924;25.562;2023-11-22T01:35:05;14.80;;;12.18;;
54899;SDS011;40801;41.924;25.562;2023-11-22T01:37:31;14.48;;;13.07;;
54899;SDS011;40801;41.924;25.562;2023-11-22T01:39:57;14.77;;;12.93;;
54899;SDS011;40801;41.924;25.562;2023-11-22T01:42:23;13.23;;;11.93;;
54899;SDS011;40801;41.924;25.562;2023-11-22T01:44:50;14.13;;;12.55;;
54899;SDS011;40801;41.924;25.562;2023-11-22T01:47:16;15.70;;;14.02;;
54899;SDS011;40801;41.924;25.562;2023-11-22T01:49:42;16.65;;;12.60;;
54899;SDS011;40801;41.924;25.562;2023-11-22T01:52:08;17.27;;;14.13;;
54899;SDS011;40801;41.924;25.562;2023-11-22T01:54:34;18.00;;;14.60;;
54899;SDS011;40801;41.924;25.562;2023-11-22T01:57:00;16.98;;;15.35;;
54899;SDS011;40801;41.924;25.562;2023-11-22T01:59:27;16.20;;;14.73;;
54899;SDS011;40801;41.924;25.562;2023-11-22T02:01:54;17.35;;;15.45;;
54899;SDS011;40801;41.924;25.562;2023-11-22T02:04:20;18.20;;;16.25;;
54899;SDS011;40801;41.924;25.562;2023-11-22T02:06:46;19.45;;;15.88;;
54899;SDS011;40801;41.924;25.562;2023-11-22T02:09:12;18.10;;;15.65;;
54899;SDS011;40801;41.924;25.562;2023-11-22T02:11:41;17.67;;;15.95;;
54899;SDS011;40801;41.924;25.562;2023-11-22T02:14:07;20.58;;;18.45;;
54899;SDS011;40801;41.924;25.562;2023-11-22T02:16:34;19.92;;;17.35;;
54899;SDS011;40801;41.924;25.562;2023-11-22T02:19:00;19.33;;;17.42;;
54899;SDS011;40801;41.924;25.562;2023-11-22T02:21:25;21.23;;;19.00;;
54899;SDS011;40801;41.924;25.562;2023-11-22T02:23:51;20.58;;;17.92;;
54899;SDS011;40801;41.924;25.562;2023-11-22T02:26:16;23.00;;;18.83;;
54899;SDS011;40801;41.924;25.562;2023-11-22T02:28:45;21.10;;;18.92;;
54899;SDS011;40801;41.924;25.562;2023-11-22T02:31:10;22.30;;;19.58;;
54899;SDS011;40801;41.924;25.562;2023-11-22T02:33:36;21.35;;;18.83;;
54899;SDS011;40801;41.924;25.562;2023-11-22T02:36:01;22.63;;;19.58;;
54899;SDS011;40801;41.924;25.562;2023-11-22T02:38:27;24.15;;;21.42;;
54899;SDS011;40801;41.924;25.562;2023-11-22T02:40:53;23.50;;;21.05;;
54899;SDS011;40801;41.924;25.562;2023-11-22T02:43:19;22.50;;;20.20;;
54899;SDS011;40801;41.924;25.562;2023-11-22T02:45:44;22.23;;;20.13;;
54899;SDS011;40801;41.924;25.562;2023-11-22T02:48:10;22.60;;;20.40;;
54899;SDS011;40801;41.924;25.562;2023-11-22T02:50:35;22.65;;;18.83;;
54899;SDS011;40801;41.924;25.562;2023-11-22T02:53:04;21.75;;;19.60;;
54899;SDS011;40801;41.924;25.562;2023-11-22T02:55:29;21.73;;;19.42;;
54899;SDS011;40801;41.924;25.562;2023-11-22T02:57:55;22.10;;;19.90;;
54899;SDS011;40801;41.924;25.562;2023-11-22T03:00:21;23.02;;;20.63;;
54899;SDS011;40801;41.924;25.562;2023-11-22T03:02:47;25.92;;;20.55;;
54899;SDS011;40801;41.924;25.562;2023-11-22T03:05:12;20.98;;;18.63;;
54899;SDS011;40801;41.924;25.562;2023-11-22T03:07:39;21.40;;;19.25;;
54899;SDS011;40801;41.924;25.562;2023-11-22T03:10:06;22.65;;;20.33;;
54899;SDS011;40801;41.924;25.562;2023-11-22T03:12:33;22.63;;;20.52;;
54899;SDS011;40801;41.924;25.562;2023-11-22T03:14:59;22.70;;;19.77;;
54899;SDS011;40801;41.924;25.562;2023-11-22T03:17:27;23.20;;;20.70;;
54899;SDS011;40801;41.924;25.562;2023-11-22T03:19:53;22.33;;;20.05;;
54899;SDS011;40801;41.924;25.562;2023-11-22T03:22:28;21.08;;;19.05;;
54899;SDS011;40801;41.924;25.562;2023-11-22T03:24:58;22.90;;;20.50;;
54899;SDS011;40801;41.924;25.562;2023-11-22T03:27:24;21.48;;;19.23;;
54899;SDS011;40801;41.924;25.562;2023-11-22T03:29:50;22.98;;;20.63;;
54899;SDS011;40801;41.924;25.562;2023-11-22T03:32:15;23.15;;;20.85;;
54899;SDS011;40801;41.924;25.562;2023-11-22T03:34:42;22.38;;;20.00;;
54899;SDS011;40801;41.924;25.562;2023-11-22T03:37:07;23.63;;;21.27;;
54899;SDS011;40801;41.924;25.562;2023-11-22T03:39:33;21.95;;;19.75;;
54899;SDS011;40801;41.924;25.562;2023-11-22T03:41:58;22.48;;;20.05;;
54899;SDS011;40801;41.924;25.562;2023-11-22T03:44:23;22.85;;;20.77;;
54899;SDS011;40801;41.924;25.562;2023-11-22T03:46:49;24.92;;;20.95;;
54899;SDS011;40801;41.924;25.562;2023-11-22T03:49:14;22.58;;;19.77;;
54899;SDS011;40801;41.924;25.562;2023-11-22T03:51:40;23.90;;;21.52;;
54899;SDS011;40801;41.924;25.562;2023-11-22T03:54:07;22.20;;;19.98;;
54899;SDS011;40801;41.924;25.562;2023-11-22T03:56:35;21.80;;;19.48;;
54899;SDS011;40801;41.924;25.562;2023-11-22T03:59:00;21.63;;;19.27;;
54899;SDS011;40801;41.924;25.562;2023-11-22T04:01:25;22.55;;;20.35;;
54899;SDS011;40801;41.924;25.562;2023-11-22T04:03:51;24.85;;;21.42;;
54899;SDS011;40801;41.924;25.562;2023-11-22T04:06:17;22.67;;;20.35;;
54899;SDS011;40801;41.924;25.562;2023-11-22T04:08:44;20.75;;;18.60;;
54899;SDS011;40801;41.924;25.562;2023-11-22T04:11:11;22.27;;;19.80;;
54899;SDS011;40801;41.924;25.562;2023-11-22T04:13:40;24.08;;;20.88;;
54899;SDS011;40801;41.924;25.562;2023-11-22T04:16:08;23.98;;;18.90;;
54899;SDS011;40801;41.924;25.562;2023-11-22T04:18:36;22.30;;;20.05;;
54899;SDS011;40801;41.924;25.562;2023-11-22T04:21:03;24.83;;;20.95;;
54899;SDS011;40801;41.924;25.562;2023-11-22T04:23:30;20.38;;;18.27;;
54899;SDS011;40801;41.924;25.562;2023-11-22T04:25:57;23.77;;;21.30;;
54899;SDS011;40801;41.924;25.562;2023-11-22T04:28:23;24.45;;;21.88;;
54899;SDS011;40801;41.924;25.562;2023-11-22T04:30:50;24.65;;;21.92;;
54899;SDS011;40801;41.924;25.562;2023-11-22T04:33:17;25.92;;;23.23;;
54899;SDS011;40801;41.924;25.562;2023-11-22T04:35:42;25.65;;;22.95;;
54899;SDS011;40801;41.924;25.562;2023-11-22T04:38:08;35.67;;;29.80;;
54899;SDS011;40801;41.924;25.562;2023-11-22T04:40:33;45.08;;;33.80;;
54899;SDS011;40801;41.924;25.562;2023-11-22T04:42:59;40.47;;;32.55;;
54899;SDS011;40801;41.924;25.562;2023-11-22T04:45:24;41.67;;;32.85;;
54899;SDS011;40801;41.924;25.562;2023-11-22T04:47:50;42.97;;;34.03;;
54899;SDS011;40801;41.924;25.562;2023-11-22T04:50:15;40.30;;;34.22;;
54899;SDS011;40801;41.924;25.562;2023-11-22T04:52:41;39.55;;;33.75;;
54899;SDS011;40801;41.924;25.562;2023-11-22T04:55:06;42.88;;;34.42;;
54899;SDS011;40801;41.924;25.562;2023-11-22T04:57:32;39.80;;;32.88;;
54899;SDS011;40801;41.924;25.562;2023-11-22T04:59:58;41.65;;;33.10;;
54899;SDS011;40801;41.924;25.562;2023-11-22T05:02:25;36.92;;;31.60;;
54899;SDS011;40801;41.924;25.562;2023-11-22T05:04:51;40.45;;;32.80;;
54899;SDS011;40801;41.924;25.562;2023-11-22T05:07:17;43.53;;;33.38;;
54899;SDS011;40801;41.924;25.562;2023-11-22T05:09:44;38.55;;;33.70;;
54899;SDS011;40801;41.924;25.562;2023-11-22T05:12:10;37.95;;;32.15;;
54899;SDS011;40801;41.924;25.562;2023-11-22T05:14:36;38.03;;;33.75;;
54899;SDS011;40801;41.924;25.562;2023-11-22T05:17:03;34.72;;;30.63;;
54899;SDS011;40801;41.924;25.562;2023-11-22T05:19:29;36.72;;;32.83;;
54899;SDS011;40801;41.924;25.562;2023-11-22T05:21:55;37.20;;;32.90;;
54899;SDS011;40801;41.924;25.562;2023-11-22T05:24:21;39.15;;;35.00;;
54899;SDS011;40801;41.924;25.562;2023-11-22T05:26:47;46.15;;;39.47;;
54899;SDS011;40801;41.924;25.562;2023-11-22T05:29:12;41.25;;;34.38;;
54899;SDS011;40801;41.924;25.562;2023-11-22T05:31:38;36.97;;;32.92;;
54899;SDS011;40801;41.924;25.562;2023-11-22T05:34:03;40.28;;;31.85;;
54899;SDS011;40801;41.924;25.562;2023-11-22T05:36:29;41.30;;;32.83;;
54899;SDS011;40801;41.924;25.562;2023-11-22T05:38:55;38.80;;;32.83;;
54899;SDS011;40801;41.924;25.562;2023-11-22T05:41:23;38.33;;;31.50;;
54899;SDS011;40801;41.924;25.562;2023-11-22T05:43:50;38.28;;;31.90;;
54899;SDS011;40801;41.924;25.562;2023-11-22T05:46:17;65.28;;;54.67;;
54899;SDS011;40801;41.924;25.562;2023-11-22T05:48:50;44.47;;;38.88;;
54899;SDS011;40801;41.924;25.562;2023-11-22T05:51:16;46.17;;;38.47;;
54899;SDS011;40801;41.924;25.562;2023-11-22T05:53:42;38.60;;;34.38;;
54899;SDS011;40801;41.924;25.562;2023-11-22T05:56:07;35.47;;;31.00;;
54899;SDS011;40801;41.924;25.562;2023-11-22T05:58:34;38.63;;;34.42;;
54899;SDS011;40801;41.924;25.562;2023-11-22T06:01:03;37.03;;;32.20;;
54899;SDS011;40801;41.924;25.562;2023-11-22T06:03:29;36.47;;;32.13;;
54899;SDS011;40801;41.924;25.562;2023-11-22T06:05:54;35.38;;;31.35;;
54899;SDS011;40801;41.924;25.562;2023-11-22T06:08:21;35.08;;;31.27;;
54899;SDS011;40801;41.924;25.562;2023-11-22T06:10:46;34.42;;;28.77;;
54899;SDS011;40801;41.924;25.562;2023-11-22T06:13:12;32.00;;;28.52;;
54899;SDS011;40801;41.924;25.562;2023-11-22T06:15:37;29.45;;;26.35;;
54899;SDS011;40801;41.924;25.562;2023-11-22T06:18:03;32.88;;;29.38;;
54899;SDS011;40801;41.924;25.562;2023-11-22T06:20:28;38.53;;;29.83;;
54899;SDS011;40801;41.924;25.562;2023-11-22T06:22:53;32.90;;;28.83;;
54899;SDS011;40801;41.924;25.562;2023-11-22T06:25:19;32.42;;;27.38;;
54899;SDS011;40801;41.924;25.562;2023-11-22T06:27:44;32.45;;;26.63;;
54899;SDS011;40801;41.924;25.562;2023-11-22T06:30:10;27.70;;;24.33;;
54899;SDS011;40801;41.924;25.562;2023-11-22T06:32:35;40.97;;;26.15;;
54899;SDS011;40801;41.924;25.562;2023-11-22T06:35:01;37.78;;;24.90;;
54899;SDS011;40801;41.924;25.562;2023-11-22T06:37:26;37.45;;;23.92;;
54899;SDS011;40801;41.924;25.562;2023-11-22T06:39:52;29.95;;;21.83;;
54899;SDS011;40801;41.924;25.562;2023-11-22T06:42:17;27.23;;;21.52;;
54899;SDS011;40801;41.924;25.562;2023-11-22T06:44:44;28.73;;;23.15;;
54899;SDS011;40801;41.924;25.562;2023-11-22T06:47:13;25.52;;;21.98;;
54899;SDS011;40801;41.924;25.562;2023-11-22T06:49:38;133.55;;;38.60;;
54899;SDS011;40801;41.924;25.562;2023-11-22T06:52:04;50.53;;;23.15;;
54899;SDS011;40801;41.924;25.562;2023-11-22T06:54:29;29.83;;;20.25;;
54899;SDS011;40801;41.924;25.562;2023-11-22T06:56:56;23.85;;;17.98;;
54899;SDS011;40801;41.924;25.562;2023-11-22T06:59:21;21.55;;;19.30;;
54899;SDS011;40801;41.924;25.562;2023-11-22T07:01:47;27.00;;;21.83;;
54899;SDS011;40801;41.924;25.562;2023-11-22T07:04:12;27.70;;;20.00;;
54899;SDS011;40801;41.924;25.562;2023-11-22T07:06:38;34.35;;;21.42;;
54899;SDS011;40801;41.924;25.562;2023-11-22T07:09:04;33.78;;;21.48;;
54899;SDS011;40801;41.924;25.562;2023-11-22T07:11:30;35.38;;;21.83;;
54899;SDS011;40801;41.924;25.562;2023-11-22T07:13:56;26.52;;;20.15;;
54899;SDS011;40801;41.924;25.562;2023-11-22T07:16:22;23.70;;;20.15;;
54899;SDS011;40801;41.924;25.562;2023-11-22T07:18:49;29.85;;;22.50;;
54899;SDS011;40801;41.924;25.562;2023-11-22T07:21:15;26.23;;;21.70;;
54899;SDS011;40801;41.924;25.562;2023-11-22T07:23:41;27.65;;;21.08;;
54899;SDS011;40801;41.924;25.562;2023-11-22T07:26:07;23.30;;;20.83;;
54899;SDS011;40801;41.924;25.562;2023-11-22T07:28:33;25.95;;;20.85;;
54899;SDS011;40801;41.924;25.562;2023-11-22T07:31:00;28.42;;;22.40;;
54899;SDS011;40801;41.924;25.562;2023-11-22T07:33:27;27.27;;;20.25;;
54899;SDS011;40801;41.924;25.562;2023-11-22T07:35:52;30.27;;;22.40;;
54899;SDS011;40801;41.924;25.562;2023-11-22T07:38:18;23.70;;;20.98;;
54899;SDS011;40801;41.924;25.562;2023-11-22T07:40:44;26.15;;;22.95;;
54899;SDS011;40801;41.924;25.562;2023-11-22T07:43:10;30.40;;;22.13;;
54899;SDS011;40801;41.924;25.562;2023-11-22T07:45:35;30.42;;;24.15;;
54899;SDS011;40801;41.924;25.562;2023-11-22T07:48:02;27.92;;;20.92;;
54899;SDS011;40801;41.924;25.562;2023-11-22T07:50:29;29.48;;;22.75;;
54899;SDS011;40801;41.924;25.562;2023-11-22T07:52:55;24.85;;;21.00;;
54899;SDS011;40801;41.924;25.562;2023-11-22T07:55:21;32.58;;;24.05;;
54899;SDS011;40801;41.924;25.562;2023-11-22T07:57:50;24.00;;;21.45;;
54899;SDS011;40801;41.924;25.562;2023-11-22T08:00:20;26.35;;;22.95;;
54899;SDS011;40801;41.924;25.562;2023-11-22T08:02:46;24.58;;;21.70;;
54899;SDS011;40801;41.924;25.562;2023-11-22T08:05:11;26.33;;;23.27;;
54899;SDS011;40801;41.924;25.562;2023-11-22T08:07:37;29.52;;;23.25;;
54899;SDS011;40801;41.924;25.562;2023-11-22T08:10:06;27.60;;;23.23;;
54899;SDS011;40801;41.924;25.562;2023-11-22T08:12:43;27.67;;;24.05;;
54899;SDS011;40801;41.924;25.562;2023-11-22T08:15:13;24.00;;;20.85;;
54899;SDS011;40801;41.924;25.562;2023-11-22T08:17:42;24.70;;;22.08;;
54899;SDS011;40801;41.924;25.562;2023-11-22T08:20:08;26.50;;;23.60;;
54899;SDS011;40801;41.924;25.562;2023-11-22T08:22:38;27.25;;;24.38;;
54899;SDS011;40801;41.924;25.562;2023-11-22T08:25:04;34.45;;;28.67;;
54899;SDS011;40801;41.924;25.562;2023-11-22T08:27:33;36.17;;;29.15;;
54899;SDS011;40801;41.924;25.562;2023-11-22T08:29:58;35.15;;;29.05;;
54899;SDS011;40801;41.924;25.562;2023-11-22T08:32:26;32.40;;;27.38;;
54899;SDS011;40801;41.924;25.562;2023-11-22T08:37:21;37.58;;;30.52;;
54899;SDS011;40801;41.924;25.562;2023-11-22T08:39:46;44.47;;;36.00;;
54899;SDS011;40801;41.924;25.562;2023-11-22T08:42:12;42.00;;;35.03;;
54899;SDS011;40801;41.924;25.562;2023-11-22T08:44:38;34.50;;;30.10;;
54899;SDS011;40801;41.924;25.562;2023-11-22T08:47:03;34.78;;;29.48;;
54899;SDS011;40801;41.924;25.562;2023-11-22T08:49:29;31.33;;;27.67;;
54899;SDS011;40801;41.924;25.562;2023-11-22T08:51:56;28.42;;;24.73;;
54899;SDS011;40801;41.924;25.562;2023-11-22T08:54:24;59.20;;;49.95;;
54899;SDS011;40801;41.924;25.562;2023-11-22T08:56:50;34.70;;;28.23;;
54899;SDS011;40801;41.924;25.562;2023-11-22T08:59:15;32.95;;;28.45;;
54899;SDS011;40801;41.924;25.562;2023-11-22T09:01:41;33.67;;;30.38;;
54899;SDS011;40801;41.924;25.562;2023-11-22T09:04:10;53.70;;;46.22;;
54899;SDS011;40801;41.924;25.562;2023-11-22T09:06:36;51.20;;;45.72;;
54899;SDS011;40801;41.924;25.562;2023-11-22T09:09:02;35.15;;;30.27;;
54899;SDS011;40801;41.924;25.562;2023-11-22T09:11:28;58.05;;;51.75;;
54899;SDS011;40801;41.924;25.562;2023-11-22T09:13:53;39.90;;;35.60;;
54899;SDS011;40801;41.924;25.562;2023-11-22T09:16:22;35.60;;;30.23;;
54899;SDS011;40801;41.924;25.562;2023-11-22T09:18:50;39.95;;;33.30;;
54899;SDS011;40801;41.924;25.562;2023-11-22T09:21:15;47.90;;;38.42;;
54899;SDS011;40801;41.924;25.562;2023-11-22T09:23:42;52.58;;;41.65;;
54899;SDS011;40801;41.924;25.562;2023-11-22T09:26:09;38.95;;;31.02;;
54899;SDS011;40801;41.924;25.562;2023-11-22T09:28:34;38.72;;;34.75;;
54899;SDS011;40801;41.924;25.562;2023-11-22T09:31:00;45.83;;;40.03;;
54899;SDS011;40801;41.924;25.562;2023-11-22T09:33:31;51.90;;;46.45;;
54899;SDS011;40801;41.924;25.562;2023-11-22T09:35:57;50.63;;;44.55;;
54899;SDS011;40801;41.924;25.562;2023-11-22T09:38:25;43.95;;;39.22;;
54899;SDS011;40801;41.924;25.562;2023-11-22T09:40:51;44.10;;;39.50;;
54899;SDS011;40801;41.924;25.562;2023-11-22T09:43:17;46.08;;;41.17;;
54899;SDS011;40801;41.924;25.562;2023-11-22T09:45:44;46.13;;;41.42;;
54899;SDS011;40801;41.924;25.562;2023-11-22T09:48:16;42.63;;;38.05;;
54899;SDS011;40801;41.924;25.562;2023-11-22T09:50:49;46.10;;;41.60;;
54899;SDS011;40801;41.924;25.562;2023-11-22T09:53:19;62.75;;;56.10;;
54899;SDS011;40801;41.924;25.562;2023-11-22T09:55:50;60.97;;;54.38;;
54899;SDS011;40801;41.924;25.562;2023-11-22T09:58:17;50.63;;;45.30;;
54899;SDS011;40801;41.924;25.562;2023-11-22T10:00:45;63.92;;;49.35;;
54899;SDS011;40801;41.924;25.562;2023-11-22T10:03:11;44.25;;;39.47;;
54899;SDS011;40801;41.924;25.562;2023-11-22T10:05:42;38.28;;;34.10;;
54899;SDS011;40801;41.924;25.562;2023-11-22T10:08:08;62.08;;;51.42;;
54899;SDS011;40801;41.924;25.562;2023-11-22T10:10:34;39.97;;;35.20;;
54899;SDS011;40801;41.924;25.562;2023-11-22T10:13:01;35.67;;;31.92;;
54899;SDS011;40801;41.924;25.562;2023-11-22T10:15:28;36.17;;;32.30;;
54899;SDS011;40801;41.924;25.562;2023-11-22T10:17:58;32.65;;;29.08;;
54899;SDS011;40801;41.924;25.562;2023-11-22T10:20:35;24.55;;;22.15;;
54899;SDS011;40801;41.924;25.562;2023-11-22T10:23:08;25.63;;;22.92;;
54899;SDS011;40801;41.924;25.562;2023-11-22T10:25:35;27.08;;;24.27;;
54899;SDS011;40801;41.924;25.562;2023-11-22T10:28:01;28.05;;;24.83;;
54899;SDS011;40801;41.924;25.562;2023-11-22T10:30:27;31.38;;;27.30;;
54899;SDS011;40801;41.924;25.562;2023-11-22T10:32:53;31.30;;;26.48;;
54899;SDS011;40801;41.924;25.562;2023-11-22T10:35:20;28.27;;;25.42;;
54899;SDS011;40801;41.924;25.562;2023-11-22T10:37:47;31.40;;;28.23;;
54899;SDS011;40801;41.924;25.562;2023-11-22T10:40:13;34.25;;;30.52;;
54899;SDS011;40801;41.924;25.562;2023-11-22T10:42:40;37.63;;;33.65;;
54899;SDS011;40801;41.924;25.562;2023-11-22T10:45:07;41.30;;;36.88;;
54899;SDS011;40801;41.924;25.562;2023-11-22T10:47:37;39.72;;;35.60;;
54899;SDS011;40801;41.924;25.562;2023-11-22T10:50:05;44.13;;;37.90;;
54899;SDS011;40801;41.924;25.562;2023-11-22T10:52:32;40.45;;;36.08;;
54899;SDS011;40801;41.924;25.562;2023-11-22T10:55:03;44.60;;;39.60;;
54899;SDS011;40801;41.924;25.562;2023-11-22T10:57:31;41.88;;;37.00;;
54899;SDS011;40801;41.924;25.562;2023-11-22T10:59:59;40.88;;;36.60;;
54899;SDS011;40801;41.924;25.562;2023-11-22T11:02:33;40.50;;;36.28;;
54899;SDS011;40801;41.924;25.562;2023-11-22T11:05:03;39.25;;;35.13;;
54899;SDS011;40801;41.924;25.562;2023-11-22T11:07:41;39.58;;;34.92;;
54899;SDS011;40801;41.924;25.562;2023-11-22T11:10:13;40.20;;;35.58;;
54899;SDS011;40801;41.924;25.562;2023-11-22T11:12:38;37.95;;;33.97;;
54899;SDS011;40801;41.924;25.562;2023-11-22T11:15:04;37.60;;;33.63;;
54899;SDS011;40801;41.924;25.562;2023-11-22T11:17:32;35.13;;;31.52;;
54899;SDS011;40801;41.924;25.562;2023-11-22T11:19:58;27.38;;;24.55;;
54899;SDS011;40801;41.924;25.562;2023-11-22T11:22:23;30.10;;;26.83;;
54899;SDS011;40801;41.924;25.562;2023-11-22T11:24:49;29.58;;;26.48;;
54899;SDS011;40801;41.924;25.562;2023-11-22T11:27:26;29.92;;;26.83;;
54899;SDS011;40801;41.924;25.562;2023-11-22T11:29:51;26.05;;;23.25;;
54899;SDS011;40801;41.924;25.562;2023-11-22T11:32:38;26.63;;;23.83;;
54899;SDS011;40801;41.924;25.562;2023-11-22T11:35:04;31.50;;;27.67;;
54899;SDS011;40801;41.924;25.562;2023-11-22T11:37:33;26.67;;;23.80;;
54899;SDS011;40801;41.924;25.562;2023-11-22T11:39:58;31.52;;;27.48;;
54899;SDS011;40801;41.924;25.562;2023-11-22T11:42:24;36.00;;;27.30;;
54899;SDS011;40801;41.924;25.562;2023-11-22T11:47:24;33.00;;;24.80;;
54899;SDS011;40801;41.924;25.562;2023-11-22T11:49:49;31.38;;;28.10;;
54899;SDS011;40801;41.924;25.562;2023-11-22T11:52:17;36.67;;;32.70;;
54899;SDS011;40801;41.924;25.562;2023-11-22T11:54:43;48.60;;;37.42;;
54899;SDS011;40801;41.924;25.562;2023-11-22T11:57:09;46.15;;;35.90;;
54899;SDS011;40801;41.924;25.562;2023-11-22T11:59:35;42.60;;;33.10;;
54899;SDS011;40801;41.924;25.562;2023-11-22T12:02:01;45.33;;;36.08;;
54899;SDS011;40801;41.924;25.562;2023-11-22T12:04:30;41.75;;;34.67;;
54899;SDS011;40801;41.924;25.562;2023-11-22T12:06:57;44.90;;;38.00;;
54899;SDS011;40801;41.924;25.562;2023-11-22T12:09:23;39.72;;;34.15;;
54899;SDS011;40801;41.924;25.562;2023-11-22T12:11:53;35.70;;;31.92;;
54899;SDS011;40801;41.924;25.562;2023-11-22T12:14:22;40.08;;;34.05;;
54899;SDS011;40801;41.924;25.562;2023-11-22T12:16:50;44.85;;;34.05;;
54899;SDS011;40801;41.924;25.562;2023-11-22T12:19:26;52.15;;;33.92;;
54899;SDS011;40801;41.924;25.562;2023-11-22T12:21:53;48.35;;;33.72;;
54899;SDS011;40801;41.924;25.562;2023-11-22T12:24:19;40.78;;;28.58;;
54899;SDS011;40801;41.924;25.562;2023-11-22T12:26:45;56.05;;;30.35;;
54899;SDS011;40801;41.924;25.562;2023-11-22T12:29:14;41.13;;;31.25;;
54899;SDS011;40801;41.924;25.562;2023-11-22T12:31:43;53.93;;;37.33;;
54899;SDS011;40801;41.924;25.562;2023-11-22T12:34:11;60.75;;;39.55;;
54899;SDS011;40801;41.924;25.562;2023-11-22T12:36:41;48.10;;;40.00;;
54899;SDS011;40801;41.924;25.562;2023-11-22T12:39:07;49.38;;;40.28;;
54899;SDS011;40801;41.924;25.562;2023-11-22T12:41:41;48.47;;;40.53;;
54899;SDS011;40801;41.924;25.562;2023-11-22T12:44:11;52.10;;;40.20;;
54899;SDS011;40801;41.924;25.562;2023-11-22T12:46:53;59.38;;;39.78;;
54899;SDS011;40801;41.924;25.562;2023-11-22T12:49:26;46.03;;;38.63;;
54899;SDS011;40801;41.924;25.562;2023-11-22T12:51:53;49.92;;;40.75;;
54899;SDS011;40801;41.924;25.562;2023-11-22T12:54:20;56.47;;;40.85;;
54899;SDS011;40801;41.924;25.562;2023-11-22T12:56:49;54.03;;;41.47;;
54899;SDS011;40801;41.924;25.562;2023-11-22T12:59:23;53.47;;;42.45;;
54899;SDS011;40801;41.924;25.562;2023-11-22T13:01:49;55.67;;;42.42;;
54899;SDS011;40801;41.924;25.562;2023-11-22T13:04:15;52.35;;;39.92;;
54899;SDS011;40801;41.924;25.562;2023-11-22T13:06:41;56.08;;;40.63;;
54899;SDS011;40801;41.924;25.562;2023-11-22T13:09:07;54.28;;;41.53;;
54899;SDS011;40801;41.924;25.562;2023-11-22T13:11:39;62.47;;;45.17;;
54899;SDS011;40801;41.924;25.562;2023-11-22T13:14:05;56.20;;;42.58;;
54899;SDS011;40801;41.924;25.562;2023-11-22T13:16:31;37.42;;;31.20;;
54899;SDS011;40801;41.924;25.562;2023-11-22T13:18:57;38.33;;;29.77;;
54899;SDS011;40801;41.924;25.562;2023-11-22T13:21:23;31.95;;;28.02;;
54899;SDS011;40801;41.924;25.562;2023-11-22T13:23:48;32.85;;;27.55;;
54899;SDS011;40801;41.924;25.562;2023-11-22T13:26:15;34.13;;;27.77;;
54899;SDS011;40801;41.924;25.562;2023-11-22T13:28:41;31.85;;;25.27;;
54899;SDS011;40801;41.924;25.562;2023-11-22T13:31:07;29.13;;;24.70;;
54899;SDS011;40801;41.924;25.562;2023-11-22T13:33:33;34.90;;;26.10;;
54899;SDS011;40801;41.924;25.562;2023-11-22T13:35:59;34.67;;;26.95;;
54899;SDS011;40801;41.924;25.562;2023-11-22T13:38:25;42.70;;;27.48;;
54899;SDS011;40801;41.924;25.562;2023-11-22T13:40:50;31.10;;;27.67;;
54899;SDS011;40801;41.924;25.562;2023-11-22T13:43:16;36.97;;;28.52;;
54899;SDS011;40801;41.924;25.562;2023-11-22T13:45:43;33.80;;;28.27;;
54899;SDS011;40801;41.924;25.562;2023-11-22T13:48:10;33.33;;;29.88;;
54899;SDS011;40801;41.924;25.562;2023-11-22T13:50:36;34.20;;;29.23;;
54899;SDS011;40801;41.924;25.562;2023-11-22T13:53:02;35.22;;;31.38;;
54899;SDS011;40801;41.924;25.562;2023-11-22T13:55:29;38.58;;;32.55;;
54899;SDS011;40801;41.924;25.562;2023-11-22T13:57:57;34.85;;;30.98;;
54899;SDS011;40801;41.924;25.562;2023-11-22T14:00:28;33.72;;;30.00;;
54899;SDS011;40801;41.924;25.562;2023-11-22T14:02:58;36.95;;;32.83;;
54899;SDS011;40801;41.924;25.562;2023-11-22T14:05:31;34.10;;;30.05;;
54899;SDS011;40801;41.924;25.562;2023-11-22T14:07:58;35.20;;;31.73;;
54899;SDS011;40801;41.924;25.562;2023-11-22T14:10:24;39.97;;;35.13;;